^^
Saratoga-Weather Station Historical Data
Daily Summary for March 30, 2021 Units:  English    Metric   Both
Daily Weekly Monthly Yearly Custom
  High: Low: Average:
Temperature: 45.9 °F 43.3 °F 44.4 °F
Dew Point: 43.9 °F 40.8 °F 42.8 °F
Humidity: 97% 90% 94%
Wind Speed: 6.9mph 0mph 1.3mph
Wind Gust: 11mph - -
Wind- - South
Pressure: 29.6 in 29.4 in -
Precipitation: 0.43 in    
Historical Graphs
 
 
Tabular Data for March 30, 2021
Time Temperature Dew Point Pressure Wind Wind Speed Wind Gust Humidity Rainfall Rate (Hourly) solar
00:02 45.3 °F 43.2 °F 29.6 in West 0.9 mph 5 mph 92% 0 in 0 W/m2
00:07 45.3 °F 43.2 °F 29.6 in West 4 mph 7 mph 92% 0 in 0 W/m2
00:12 45.3 °F 43.2 °F 29.6 in SW 4 mph 5 mph 92% 0 in 0 W/m2
00:17 45.1 °F 43 °F 29.6 in WNW 2 mph 7 mph 92% 0 in 0 W/m2
00:22 45.3 °F 43.2 °F 29.6 in WNW 2 mph 9 mph 92% 0 in 0 W/m2
00:27 45.3 °F 43.2 °F 29.6 in WSW 2.9 mph 4 mph 92% 0 in 0 W/m2
00:32 45.3 °F 43.2 °F 29.6 in Calm   7 mph 92% 0 in 0 W/m2
00:37 45.3 °F 43.2 °F 29.6 in NW 2.9 mph 6 mph 92% 0 in 0 W/m2
00:42 45.3 °F 43.2 °F 29.6 in SSE 2.9 mph 6 mph 92% 0 in 0 W/m2
00:47 45.3 °F 43.2 °F 29.6 in WSW 2 mph 4 mph 92% 0 in 0 W/m2
00:52 45.3 °F 43.2 °F 29.6 in WNW 4 mph 5 mph 92% 0 in 0 W/m2
00:57 45.5 °F 43.3 °F 29.6 in West 6 mph 8 mph 92% 0 in 0 W/m2
01:02 45.5 °F 43.3 °F 29.6 in West 6 mph 6 mph 92% 0 in 0 W/m2
01:07 45.5 °F 43.3 °F 29.6 in WSW 0.9 mph 6 mph 92% 0 in 0 W/m2
01:12 45.5 °F 43.3 °F 29.6 in WSW 2.9 mph 3 mph 92% 0 in 0 W/m2
01:17 45.3 °F 43.2 °F 29.6 in WNW 2.9 mph 4 mph 92% 0 in 0 W/m2
01:22 45.3 °F 43.2 °F 29.6 in NW 2.9 mph 3 mph 92% 0 in 0 W/m2
01:27 45.5 °F 43.3 °F 29.6 in West 6.9 mph 11 mph 92% 0 in 0 W/m2
01:32 45.7 °F 43.5 °F 29.6 in West 6 mph 8 mph 92% 0 in 0 W/m2
01:37 45.7 °F 43.5 °F 29.6 in WSW 2 mph 7 mph 92% 0 in 0 W/m2
01:42 45.7 °F 43.5 °F 29.6 in West 2.9 mph 8 mph 92% 0 in 0 W/m2
01:47 45.7 °F 43.5 °F 29.6 in WNW 2.9 mph 7 mph 92% 0 in 0 W/m2
01:52 45.9 °F 43.7 °F 29.6 in NNW 4.9 mph 8 mph 92% 0 in 0 W/m2
01:57 45.7 °F 43.2 °F 29.6 in WNW 2 mph 5 mph 91% 0 in 0 W/m2
02:02 45.7 °F 43.2 °F 29.6 in WSW 2 mph 5 mph 91% 0 in 0 W/m2
02:07 45.7 °F 43.2 °F 29.6 in West 2 mph 5 mph 91% 0 in 0 W/m2
02:12 45.7 °F 43.2 °F 29.6 in WSW 4 mph 4 mph 91% 0 in 0 W/m2
02:17 45.7 °F 43.2 °F 29.6 in WNW 2.9 mph 4 mph 91% 0 in 0 W/m2
02:22 45.7 °F 43.5 °F 29.6 in WNW 0.9 mph 8 mph 92% 0 in 0 W/m2
02:27 45.5 °F 43.3 °F 29.6 in NW 2 mph 9 mph 92% 0 in 0 W/m2
02:32 45.3 °F 43.2 °F 29.6 in WNW 2 mph 5 mph 92% 0 in 0 W/m2
02:37 45.3 °F 43.2 °F 29.6 in WNW 2.9 mph 9 mph 92% 0 in 0 W/m2
02:42 45.3 °F 43.2 °F 29.6 in WNW 0.9 mph 3 mph 92% 0 in 0 W/m2
02:47 45.3 °F 43.2 °F 29.6 in WNW 2.9 mph 7 mph 92% 0 in 0 W/m2
02:52 45.1 °F 43 °F 29.6 in Calm   5 mph 92% 0 in 0 W/m2
02:57 45.3 °F 43.2 °F 29.6 in NW 0.9 mph 5 mph 92% 0 in 0 W/m2
03:02 45.1 °F 43 °F 29.6 in WNW 2 mph 6 mph 92% 0 in 0 W/m2
03:07 45.1 °F 43 °F 29.6 in Calm   3 mph 92% 0 in 0 W/m2
03:12 45.1 °F 43 °F 29.6 in West 0.9 mph 7 mph 92% 0 in 0 W/m2
03:17 45.1 °F 43 °F 29.6 in NW 2 mph 7 mph 92% 0 in 0 W/m2
03:22 45.1 °F 43 °F 29.6 in NW 2 mph 2 mph 92% 0 in 0 W/m2
03:27 45.1 °F 43 °F 29.6 in SSW 2 mph 7 mph 92% 0 in 0 W/m2
03:32 45 °F 42.8 °F 29.6 in WNW 0.9 mph 3 mph 92% 0 in 0 W/m2
03:37 45 °F 42.4 °F 29.6 in West 0.9 mph 2 mph 91% 0 in 0 W/m2
03:42 44.8 °F 42.3 °F 29.6 in WNW 2.9 mph 5 mph 91% 0 in 0 W/m2
03:47 44.8 °F 42.3 °F 29.6 in Calm   2 mph 91% 0 in 0 W/m2
03:52 44.6 °F 42.1 °F 29.6 in NNE 0.9 mph 5 mph 91% 0 in 0 W/m2
03:57 44.4 °F 41.9 °F 29.6 in WNW 0.9 mph 3 mph 91% 0 in 0 W/m2
04:02 44.4 °F 41.9 °F 29.6 in Calm   1 mph 91% 0 in 0 W/m2
04:07 44.4 °F 41.7 °F 29.6 in Calm   4 mph 90% 0 in 0 W/m2
04:12 44.2 °F 41.7 °F 29.6 in SW 2.9 mph 6 mph 91% 0 in 0 W/m2
04:17 44.1 °F 41.5 °F 29.6 in South 2 mph 2 mph 91% 0 in 0 W/m2
04:22 44.1 °F 41.5 °F 29.6 in East 2 mph 3 mph 91% 0 in 0 W/m2
04:27 43.9 °F 41.4 °F 29.6 in WSW 2.9 mph 3 mph 91% 0 in 0 W/m2
04:32 43.7 °F 41.2 °F 29.6 in ESE 2.9 mph 4 mph 91% 0 in 0 W/m2
04:37 43.7 °F 41.2 °F 29.6 in WNW 2.9 mph 3 mph 91% 0 in 0 W/m2
04:42 43.5 °F 41 °F 29.6 in SSE 0.9 mph 4 mph 91% 0 in 0 W/m2
04:47 43.5 °F 41 °F 29.6 in WNW 2 mph 4 mph 91% 0 in 0 W/m2
04:52 43.5 °F 41 °F 29.6 in WNW 0.9 mph 3 mph 91% 0 in 0 W/m2
04:57 43.5 °F 41 °F 29.6 in NW 2.9 mph 5 mph 91% 0 in 0 W/m2
05:02 43.3 °F 40.8 °F 29.6 in WNW 2 mph 7 mph 91% 0 in 0 W/m2
05:07 43.3 °F 40.8 °F 29.6 in West 2 mph 3 mph 91% 0 in 0 W/m2
05:12 43.5 °F 41 °F 29.6 in WSW 2 mph 8 mph 91% 0 in 0 W/m2
05:17 43.3 °F 40.8 °F 29.6 in NNW 4 mph 5 mph 91% 0 in 0 W/m2
05:22 43.5 °F 41 °F 29.6 in South 0.9 mph 10 mph 91% 0 in 0 W/m2
05:27 43.5 °F 41 °F 29.6 in Calm   1 mph 91% 0 in 0 W/m2
05:32 43.5 °F 41.4 °F 29.6 in East 2 mph 4 mph 92% 0 in 0 W/m2
05:37 43.7 °F 41.5 °F 29.6 in NW 2 mph 4 mph 92% 0 in 0 W/m2
05:42 43.9 °F 41.7 °F 29.6 in West 0.9 mph 8 mph 92% 0 in 0 W/m2
05:47 44.1 °F 41.9 °F 29.6 in WNW 0.9 mph 4 mph 92% 0 in 0 W/m2
05:52 44.1 °F 41.9 °F 29.6 in WNW 2 mph 8 mph 92% 0 in 0 W/m2
05:57 44.1 °F 42.1 °F 29.6 in Calm   1 mph 93% 0 in 0 W/m2
06:02 44.2 °F 42.3 °F 29.6 in Calm   3 mph 93% 0 in 0 W/m2
06:08 44.2 °F 42.3 °F 29.6 in SE 2.9 mph 9 mph 93% 0 in 0 W/m2
06:13 44.2 °F 42.3 °F 29.6 in SSW 0.9 mph 3 mph 93% 0 in 0 W/m2
06:18 44.2 °F 42.3 °F 29.6 in West 2 mph 9 mph 93% 0 in 0 W/m2
06:23 44.4 °F 42.4 °F 29.6 in NNW 0.9 mph 3 mph 93% 0 in 0 W/m2
06:28 44.4 °F 42.4 °F 29.6 in WNW 0.9 mph 2 mph 93% 0 in 0 W/m2
06:33 44.4 °F 42.4 °F 29.6 in North 0.9 mph 2 mph 93% 0 in 0 W/m2
06:38 44.4 °F 42.4 °F 29.5 in NNW 0.9 mph 5 mph 93% 0 in 0 W/m2
06:43 44.6 °F 42.6 °F 29.5 in Calm   2 mph 93% 0 in 0 W/m2
06:48 44.6 °F 42.6 °F 29.5 in Calm   5 mph 93% 0 in 0 W/m2
06:53 44.6 °F 42.6 °F 29.5 in WSW 2 mph 2 mph 93% 0 in 0 W/m2
06:58 44.6 °F 42.6 °F 29.5 in ENE 2 mph 3 mph 93% 0 in 0 W/m2
07:03 44.6 °F 42.6 °F 29.5 in Calm   2 mph 93% 0 in 0 W/m2
07:08 44.6 °F 42.6 °F 29.5 in Calm     93% 0 in 0 W/m2
07:13 44.6 °F 42.6 °F 29.5 in NNW 0.9 mph 3 mph 93% 0 in 0 W/m2
07:18 44.8 °F 42.8 °F 29.5 in WNW 0.9 mph 2 mph 93% 0 in 0 W/m2
07:23 44.8 °F 42.8 °F 29.5 in Calm     93% 0 in 0 W/m2
07:28 44.8 °F 42.8 °F 29.5 in Calm   2 mph 93% 0 in 0 W/m2
07:33 44.8 °F 42.8 °F 29.5 in NW 0.9 mph 3 mph 93% 0 in 0 W/m2
07:38 44.8 °F 42.8 °F 29.5 in Calm   2 mph 93% 0 in 0 W/m2
07:43 44.8 °F 42.8 °F 29.5 in Calm   3 mph 93% 0 in 0 W/m2
07:48 44.6 °F 42.6 °F 29.5 in SSW 2.9 mph 3 mph 93% 0 in 0 W/m2
07:53 44.6 °F 42.6 °F 29.5 in Calm   1 mph 93% 0 in 0 W/m2
07:58 44.6 °F 42.6 °F 29.5 in West 0.9 mph 2 mph 93% 0 in 0 W/m2
08:03 44.8 °F 43.2 °F 29.5 in WNW 0.9 mph 3 mph 94% 0 in 0 W/m2
08:08 44.8 °F 43.2 °F 29.5 in Calm   2 mph 94% 0 in 0 W/m2
08:13 44.8 °F 43.2 °F 29.5 in Calm   2 mph 94% 0 in 0 W/m2
08:18 45 °F 43 °F 29.5 in Calm     93% 0 in 0 W/m2
08:23 45 °F 43 °F 29.5 in Calm     93% 0 in 0 W/m2
08:28 44.8 °F 42.8 °F 29.5 in Calm     93% 0 in 0 W/m2
08:33 44.8 °F 43.2 °F 29.5 in Calm   1 mph 94% 0 in 0 W/m2
08:38 44.6 °F 43 °F 29.5 in Calm   1 mph 94% 0 in 0 W/m2
08:43 44.4 °F 42.8 °F 29.5 in ENE 0.9 mph 2 mph 94% 0 in 7 W/m2
08:48 44.4 °F 42.8 °F 29.5 in Calm     94% 0.01 in 7 W/m2
08:53 44.4 °F 42.8 °F 29.5 in Calm     94% 0.01 in 9 W/m2
08:58 44.2 °F 42.6 °F 29.5 in Calm     94% 0.02 in 11 W/m2
09:03 44.2 °F 42.6 °F 29.5 in Calm     94% 0.02 in 12 W/m2
09:08 44.2 °F 43 °F 29.5 in Calm     95% 0.02 in 14 W/m2
09:13 44.2 °F 43 °F 29.5 in ENE 0.9 mph 2 mph 95% 0.02 in 14 W/m2
09:18 44.2 °F 43 °F 29.5 in Calm   1 mph 95% 0.02 in 18 W/m2
09:23 44.1 °F 42.8 °F 29.5 in Calm     95% 0.03 in 18 W/m2
09:28 44.1 °F 42.8 °F 29.5 in Calm   2 mph 95% 0.03 in 23 W/m2
09:33 44.1 °F 42.8 °F 29.5 in Calm   1 mph 95% 0.04 in 26 W/m2
09:38 44.1 °F 42.8 °F 29.5 in East 0.9 mph 2 mph 95% 0.04 in 23 W/m2
09:43 44.1 °F 42.8 °F 29.5 in East 0.9 mph 1 mph 95% 0.05 in 19 W/m2
09:48 43.9 °F 42.6 °F 29.5 in East 0.9 mph 2 mph 95% 0.05 in 18 W/m2
09:53 43.9 °F 42.6 °F 29.5 in East 0.9 mph 2 mph 95% 0.06 in 23 W/m2
09:58 43.9 °F 42.6 °F 29.5 in Calm   1 mph 95% 0.05 in 26 W/m2
10:03 43.9 °F 42.8 °F 29.5 in Calm   1 mph 96% 0.06 in 30 W/m2
10:08 43.9 °F 42.8 °F 29.5 in Calm     96% 0.05 in 30 W/m2
10:13 43.9 °F 42.8 °F 29.5 in Calm   1 mph 96% 0.06 in 32 W/m2
10:18 43.9 °F 42.8 °F 29.5 in East 0.9 mph 1 mph 96% 0.06 in 35 W/m2
10:23 43.9 °F 42.8 °F 29.5 in Calm   1 mph 96% 0.06 in 30 W/m2
10:28 43.9 °F 42.8 °F 29.5 in East 0.9 mph 3 mph 96% 0.06 in 25 W/m2
10:33 43.9 °F 42.8 °F 29.5 in ENE 2 mph 2 mph 96% 0.06 in 28 W/m2
10:38 43.9 °F 42.8 °F 29.5 in East 0.9 mph 1 mph 96% 0.07 in 28 W/m2
10:43 43.9 °F 42.8 °F 29.5 in East 2.9 mph 4 mph 96% 0.06 in 51 W/m2
10:48 44.1 °F 43 °F 29.5 in Calm   2 mph 96% 0.06 in 56 W/m2
10:53 44.1 °F 43 °F 29.5 in Calm     96% 0.06 in 60 W/m2
10:58 44.2 °F 43.2 °F 29.5 in Calm   1 mph 96% 0.06 in 49 W/m2
11:03 44.2 °F 43.2 °F 29.5 in ENE 0.9 mph 3 mph 96% 0.06 in 60 W/m2
11:08 44.2 °F 43.2 °F 29.5 in Calm   3 mph 96% 0.06 in 67 W/m2
11:13 44.4 °F 43.3 °F 29.5 in ENE 0.9 mph 2 mph 96% 0.06 in 70 W/m2
11:18 44.4 °F 43.3 °F 29.5 in ENE 0.9 mph 2 mph 96% 0.06 in 67 W/m2
11:23 44.6 °F 43.9 °F 29.5 in ESE 0.9 mph 1 mph 97% 0.06 in 58 W/m2
11:28 44.6 °F 43.5 °F 29.5 in NE 2 mph 4 mph 96% 0.06 in 69 W/m2
11:33 44.4 °F 43.3 °F 29.5 in Calm   1 mph 96% 0.06 in 54 W/m2
11:38 44.4 °F 43.3 °F 29.4 in Calm   4 mph 96% 0.06 in 70 W/m2
11:44 44.4 °F 43.3 °F 29.4 in Calm   3 mph 96% 0.06 in 77 W/m2
11:49 44.4 °F 43.3 °F 29.4 in ENE 0.9 mph 2 mph 96% 0.06 in 62 W/m2
11:54 44.4 °F 43.3 °F 29.4 in ENE 0.9 mph 4 mph 96% 0.06 in 67 W/m2
11:59 44.4 °F 43.3 °F 29.4 in NE 2 mph 4 mph 96% 0.06 in 93 W/m2
12:04 44.4 °F 43.3 °F 29.4 in ESE 2 mph 5 mph 96% 0.06 in 83 W/m2
12:09 44.4 °F 43.7 °F 29.4 in East 2 mph 4 mph 97% 0.06 in 81 W/m2
12:14 44.4 °F 43.3 °F 29.4 in ENE 0.9 mph 3 mph 96% 0.06 in 86 W/m2
12:19 44.4 °F 43.3 °F 29.4 in ESE 0.9 mph 4 mph 96% 0.06 in 79 W/m2
12:24 44.4 °F 43.3 °F 29.4 in ESE 2.9 mph 3 mph 96% 0.06 in 63 W/m2
12:29 44.6 °F 43.5 °F 29.4 in East 0.9 mph 1 mph 96% 0.05 in 56 W/m2
12:34 44.6 °F 43.5 °F 29.4 in ESE 2.9 mph 3 mph 96% 0.04 in 65 W/m2
12:39 44.4 °F 43.3 °F 29.4 in ESE 2 mph 3 mph 96% 0.05 in 53 W/m2
12:44 44.4 °F 43.3 °F 29.4 in ESE 2 mph 2 mph 96% 0.04 in 53 W/m2
12:49 44.4 °F 43.3 °F 29.4 in East 2 mph 6 mph 96% 0.04 in 46 W/m2
12:54 44.2 °F 43.2 °F 29.4 in East 2 mph 3 mph 96% 0.04 in 47 W/m2
12:59 44.2 °F 43.2 °F 29.4 in SE 2 mph 2 mph 96% 0.04 in 40 W/m2
13:04 44.2 °F 43.2 °F 29.4 in Calm   3 mph 96% 0.04 in 42 W/m2
13:09 44.2 °F 43.2 °F 29.4 in ESE 2 mph 2 mph 96% 0.05 in 35 W/m2
13:14 44.2 °F 43.2 °F 29.4 in Calm   3 mph 96% 0.04 in 30 W/m2
13:19 44.2 °F 43.2 °F 29.4 in ESE 2.9 mph 3 mph 96% 0.04 in 40 W/m2
13:24 44.2 °F 43.2 °F 29.4 in ESE 2 mph 4 mph 96% 0.04 in 47 W/m2
13:29 44.2 °F 43.2 °F 29.4 in ENE 2.9 mph 4 mph 96% 0.04 in 47 W/m2
13:34 44.2 °F 43.2 °F 29.4 in SE 0.9 mph 5 mph 96% 0.04 in 40 W/m2
13:39 44.2 °F 43.2 °F 29.4 in Calm     96% 0.04 in 23 W/m2
13:44 44.2 °F 43.2 °F 29.4 in Calm   3 mph 96% 0.04 in 25 W/m2
13:49 44.1 °F 43 °F 29.4 in East 2 mph 7 mph 96% 0.04 in 28 W/m2
13:54 44.1 °F 43 °F 29.4 in ENE 2 mph 4 mph 96% 0.04 in 35 W/m2
13:59 44.1 °F 43 °F 29.4 in Calm   6 mph 96% 0.05 in 39 W/m2
14:04 44.1 °F 43 °F 29.4 in East 0.9 mph 3 mph 96% 0.04 in 30 W/m2
14:09 44.1 °F 43 °F 29.4 in East 0.9 mph 2 mph 96% 0.04 in 30 W/m2
14:14 43.9 °F 42.8 °F 29.4 in East 0.9 mph 3 mph 96% 0.04 in 35 W/m2
14:19 43.9 °F 42.8 °F 29.4 in East 4 mph 4 mph 96% 0.04 in 32 W/m2
14:24 43.9 °F 42.8 °F 29.4 in Calm   3 mph 96% 0.03 in 30 W/m2
14:29 43.9 °F 42.8 °F 29.4 in ESE 2.9 mph 4 mph 96% 0.04 in 25 W/m2
14:34 43.9 °F 43.2 °F 29.4 in Calm   2 mph 97% 0.03 in 37 W/m2
14:39 44.1 °F 43.3 °F 29.4 in Calm   2 mph 97% 0.03 in 35 W/m2
14:44 44.1 °F 43 °F 29.4 in Calm   2 mph 96% 0.04 in 26 W/m2
14:49 44.1 °F 43 °F 29.4 in Calm   1 mph 96% 0.04 in 23 W/m2
14:54 44.1 °F 43 °F 29.4 in East 2.9 mph 3 mph 96% 0.04 in 28 W/m2
14:59 44.1 °F 43 °F 29.4 in East 0.9 mph 2 mph 96% 0.03 in 33 W/m2
15:04 44.1 °F 43 °F 29.4 in East 2 mph 2 mph 96% 0.04 in 30 W/m2
15:09 44.1 °F 43 °F 29.4 in ENE 0.9 mph 2 mph 96% 0.04 in 26 W/m2
15:14 44.1 °F 43.3 °F 29.4 in ENE 2 mph 2 mph 97% 0.04 in 25 W/m2
15:19 44.1 °F 43.3 °F 29.4 in ENE 2 mph 3 mph 97% 0.05 in 23 W/m2
15:24 44.1 °F 43.3 °F 29.4 in ENE 2 mph 2 mph 97% 0.05 in 19 W/m2
15:29 44.1 °F 43.3 °F 29.4 in Calm   3 mph 97% 0.05 in 16 W/m2
15:34 44.1 °F 43.3 °F 29.4 in Calm   3 mph 97% 0.05 in 19 W/m2
15:39 43.9 °F 43.2 °F 29.4 in NE 2 mph 2 mph 97% 0.06 in 19 W/m2
15:44 43.9 °F 43.2 °F 29.4 in Calm   2 mph 97% 0.05 in 14 W/m2
15:49 43.9 °F 43.2 °F 29.4 in East 0.9 mph 3 mph 97% 0.06 in 12 W/m2
15:54 43.9 °F 43.2 °F 29.4 in ENE 0.9 mph 2 mph 97% 0.05 in 12 W/m2
15:59 43.9 °F 43.2 °F 29.4 in East 2 mph 3 mph 97% 0.06 in 12 W/m2
16:04 43.9 °F 43.2 °F 29.4 in East 0.9 mph 4 mph 97% 0.05 in 14 W/m2
16:09 43.9 °F 43.2 °F 29.4 in East 0.9 mph 2 mph 97% 0.05 in 12 W/m2
16:14 43.9 °F 43.2 °F 29.4 in ENE 2 mph 4 mph 97% 0.06 in 14 W/m2
16:20 43.9 °F 43.2 °F 29.4 in Calm   2 mph 97% 0.05 in 12 W/m2
16:25 43.9 °F 43.2 °F 29.4 in East 0.9 mph 4 mph 97% 0.06 in 9 W/m2
16:30 43.9 °F 43.2 °F 29.4 in East 0.9 mph 1 mph 97% 0.06 in 7 W/m2
16:35 43.9 °F 43.2 °F 29.4 in Calm   1 mph 97% 0.06 in 11 W/m2
16:40 43.9 °F 43.2 °F 29.4 in Calm   3 mph 97% 0.06 in 9 W/m2
16:45 43.9 °F 43.2 °F 29.4 in ESE 0.9 mph 2 mph 97% 0.06 in 5 W/m2
16:50 43.9 °F 43.2 °F 29.4 in ESE 0.9 mph 2 mph 97% 0.06 in 7 W/m2
16:55 43.9 °F 43.2 °F 29.4 in Calm   2 mph 97% 0.06 in 5 W/m2
17:00 43.9 °F 43.2 °F 29.4 in ESE 0.9 mph 3 mph 97% 0.05 in 5 W/m2
17:05 43.9 °F 43.2 °F 29.4 in Calm   1 mph 97% 0.06 in 5 W/m2
17:10 43.9 °F 43.2 °F 29.4 in NE 0.9 mph 3 mph 97% 0.05 in 0 W/m2
17:15 43.9 °F 43.2 °F 29.4 in Calm   4 mph 97% 0.05 in 0 W/m2
17:20 43.9 °F 43.2 °F 29.4 in Calm   1 mph 97% 0.05 in 0 W/m2
17:25 43.9 °F 43.2 °F 29.4 in NE 0.9 mph 4 mph 97% 0.04 in 0 W/m2
17:30 43.9 °F 43.2 °F 29.4 in Calm   2 mph 97% 0.04 in 0 W/m2
17:35 43.7 °F 43 °F 29.4 in Calm     97% 0.04 in 0 W/m2
17:40 43.7 °F 43 °F 29.4 in East 0.9 mph 2 mph 97% 0.03 in 0 W/m2
17:45 43.7 °F 43 °F 29.4 in NE 2.9 mph 3 mph 97% 0.03 in 0 W/m2
17:50 43.7 °F 43 °F 29.4 in Calm     97% 0.02 in 0 W/m2
17:55 43.7 °F 43 °F 29.4 in NE 0.9 mph 3 mph 97% 0.03 in 0 W/m2
18:00 43.5 °F 42.8 °F 29.4 in ENE 2 mph 4 mph 97% 0.03 in 0 W/m2
18:05 43.5 °F 42.8 °F 29.4 in ESE 2 mph 3 mph 97% 0.02 in 0 W/m2
18:10 43.5 °F 42.8 °F 29.4 in Calm   4 mph 97% 0.02 in 0 W/m2
18:15 43.5 °F 42.8 °F 29.4 in Calm   1 mph 97% 0.02 in 0 W/m2
Juneau County Weather
Compliments of Weather Underground - 2 mb